createdAt,value
2022-12-08T00:00:11.787Z,100188.63
2022-12-08T00:02:39.569Z,100187.44
2022-12-08T00:05:25.040Z,100179.66
2022-12-08T00:08:11.568Z,100173.72
2022-12-08T00:10:54.331Z,100174.34
2022-12-08T00:13:21.809Z,100170.47
2022-12-08T00:15:52.183Z,100174.75
2022-12-08T00:18:19.631Z,100171.06
2022-12-08T00:20:49.429Z,100171.63
2022-12-08T00:23:18.231Z,100160.03
2022-12-08T00:25:45.723Z,100163.88
2022-12-08T00:28:13.187Z,100159.03
2022-12-08T00:30:41.075Z,100154.09
2022-12-08T00:33:08.540Z,100156.75
2022-12-08T00:35:42.781Z,100145.47
2022-12-08T00:38:10.623Z,100149.34
2022-12-08T00:40:42.390Z,100149.72
2022-12-08T00:43:09.825Z,100133.88
2022-12-08T00:45:37.331Z,100135.66
2022-12-08T00:48:05.327Z,100125.72
2022-12-08T00:50:32.794Z,100124.22
2022-12-08T00:53:00.262Z,100120.13
2022-12-08T00:55:27.872Z,100120.34
2022-12-08T00:57:56.662Z,100116.75
2022-12-08T01:00:24.119Z,100115.09
2022-12-08T01:02:51.624Z,100115.91
2022-12-08T01:05:19.116Z,100125.47
2022-12-08T01:07:48.877Z,100118.06
2022-12-08T01:10:16.499Z,100120.91
2022-12-08T01:12:44.030Z,100114.41
2022-12-08T01:15:12.876Z,100110.97
2022-12-08T01:17:40.367Z,100107.06
2022-12-08T01:20:09.302Z,100109.91
2022-12-08T01:22:36.763Z,100110.56
2022-12-08T01:25:04.817Z,100108.09
2022-12-08T01:27:32.275Z,100111.97
2022-12-08T01:29:59.728Z,100108.09
2022-12-08T01:32:28.573Z,100111.31
2022-12-08T01:34:56.030Z,100108.66
2022-12-08T01:37:23.470Z,100112.81
2022-12-08T01:39:50.943Z,100103.16
2022-12-08T01:42:22.738Z,100096.88
2022-12-08T01:44:59.820Z,100103.34
2022-12-08T01:47:33.599Z,100092.94
2022-12-08T01:50:01.595Z,100102.56
2022-12-08T01:52:33.537Z,100090.84
2022-12-08T01:55:03.758Z,100096.44
2022-12-08T01:57:33.518Z,100096.66
2022-12-08T02:00:04.301Z,100089.69
2022-12-08T02:02:39.537Z,100097.19
2022-12-08T02:05:08.138Z,100095.38
2022-12-08T02:07:36.550Z,100090.25
2022-12-08T02:10:04.524Z,100081.06
2022-12-08T02:12:32.252Z,100082.81
2022-12-08T02:15:04.733Z,100076.97
2022-12-08T02:17:45.223Z,100074.31
2022-12-08T02:20:33.352Z,100066.34
2022-12-08T02:23:06.428Z,100065.09
2022-12-08T02:25:43.151Z,100069.38
2022-12-08T02:28:27.688Z,100063.31
2022-12-08T02:31:03.581Z,100062.88
2022-12-08T02:34:02.492Z,100065.31
2022-12-08T02:36:36.435Z,100055.56
2022-12-08T02:39:11.963Z,100054.75
2022-12-08T02:41:43.107Z,100051.22
2022-12-08T02:44:14.875Z,100045.94
2022-12-08T02:46:53.946Z,100038.72
2022-12-08T02:49:22.802Z,100035.69
2022-12-08T02:51:50.229Z,100039.78
2022-12-08T02:54:17.847Z,100047.19
2022-12-08T02:57:00.088Z,100032.88
2022-12-08T02:59:35.455Z,100034.50
2022-12-08T03:02:15.402Z,100027.56
2022-12-08T03:04:47.067Z,100023.25
2022-12-08T03:07:21.006Z,100029.75
2022-12-08T03:09:52.753Z,100022.41
2022-12-08T03:12:23.971Z,100015.72
2022-12-08T03:14:56.023Z,100017.00
2022-12-08T03:17:27.129Z,100009.00
2022-12-08T03:19:57.580Z,100003.41
2022-12-08T03:22:26.379Z,100002.97
2022-12-08T03:24:54.624Z,100001.72
2022-12-08T03:27:23.491Z,100000.66
2022-12-08T03:29:54.284Z,99998.16
2022-12-08T03:32:25.199Z,100001.41
2022-12-08T03:34:55.670Z,99987.03
2022-12-08T03:37:23.270Z,99990.16
2022-12-08T03:39:50.914Z,99992.56
2022-12-08T03:42:18.456Z,99988.41
2022-12-08T03:44:45.927Z,99993.03
2022-12-08T03:47:13.580Z,99991.25
2022-12-08T03:49:41.095Z,99988.38
2022-12-08T03:52:09.950Z,99989.34
2022-12-08T03:54:37.466Z,99983.56
2022-12-08T03:57:05.082Z,99994.47
2022-12-08T03:59:32.561Z,99985.09
2022-12-08T04:02:00.290Z,99983.81
2022-12-08T04:04:27.806Z,99976.25
2022-12-08T04:06:55.307Z,99969.34
2022-12-08T04:09:24.503Z,99967.75
2022-12-08T04:11:52.005Z,99962.56
2022-12-08T04:14:19.538Z,99972.19
2022-12-08T04:16:47.019Z,99965.47
2022-12-08T04:19:14.918Z,99959.88
2022-12-08T04:21:42.406Z,99958.47
2022-12-08T04:24:10.259Z,99962.16
2022-12-08T04:26:39.097Z,99959.75
2022-12-08T04:29:06.582Z,99956.66
2022-12-08T04:31:34.142Z,99954.19
2022-12-08T04:34:03.986Z,99958.63
2022-12-08T04:36:31.430Z,99958.09
2022-12-08T04:38:58.947Z,99959.72
2022-12-08T04:41:26.425Z,99953.97
2022-12-08T04:43:55.304Z,99955.69
2022-12-08T04:46:22.844Z,99960.75
2022-12-08T04:48:50.395Z,99960.06
2022-12-08T04:51:19.355Z,99957.81
2022-12-08T04:53:47.542Z,99952.16
2022-12-08T04:56:16.241Z,99953.69
2022-12-08T04:58:43.839Z,99960.34
2022-12-08T05:01:13.222Z,99965.31
2022-12-08T05:03:40.972Z,99960.50
2022-12-08T05:06:08.543Z,99962.72
2022-12-08T05:08:36.062Z,99958.56
2022-12-08T05:11:04.615Z,99967.50
2022-12-08T05:13:32.582Z,99955.28
2022-12-08T05:16:04.560Z,99955.72
2022-12-08T05:18:33.718Z,99957.91
2022-12-08T05:21:01.369Z,99950.75
2022-12-08T05:23:28.884Z,99956.56
2022-12-08T05:25:56.469Z,99956.09
2022-12-08T05:31:12.227Z,99948.19
2022-12-08T05:33:41.438Z,99947.53
2022-12-08T05:36:09.847Z,99953.09
2022-12-08T05:38:37.350Z,99942.09
2022-12-08T05:41:05.023Z,99942.41
2022-12-08T05:43:32.504Z,99934.06
2022-12-08T05:46:00.186Z,99943.72
2022-12-08T05:48:27.990Z,99942.97
2022-12-08T05:50:57.075Z,99941.88
2022-12-08T05:53:24.547Z,99937.66
2022-12-08T05:55:52.008Z,99940.44
2022-12-08T05:58:20.845Z,99932.50
2022-12-08T06:00:49.719Z,99926.66
2022-12-08T06:03:18.992Z,99926.53
2022-12-08T06:05:47.730Z,99929.47
2022-12-08T06:08:17.117Z,99929.13
2022-12-08T06:10:46.195Z,99928.44
2022-12-08T06:13:14.083Z,99935.75
2022-12-08T06:15:41.947Z,99931.56
2022-12-08T06:18:10.493Z,99934.94
2022-12-08T06:20:37.954Z,99938.88
2022-12-08T06:23:05.434Z,99941.41
2022-12-08T06:25:34.275Z,99944.00
2022-12-08T06:28:01.787Z,99939.75
2022-12-08T06:30:29.299Z,99944.97
2022-12-08T06:32:56.766Z,99943.56
2022-12-08T06:35:24.341Z,99946.50
2022-12-08T06:37:51.922Z,99940.88
2022-12-08T06:40:19.904Z,99941.81
2022-12-08T06:42:48.683Z,99945.56
2022-12-08T06:45:17.458Z,99949.97
2022-12-08T06:47:45.369Z,99943.72
2022-12-08T06:50:13.986Z,99944.31
2022-12-08T06:52:55.781Z,99945.75
2022-12-08T06:55:57.337Z,99946.38
2022-12-08T06:58:15.491Z,99947.34
2022-12-08T07:00:43.445Z,99951.53
2022-12-08T07:03:12.297Z,99954.91
2022-12-08T07:05:40.162Z,99958.41
2022-12-08T07:08:09.208Z,99957.00
2022-12-08T07:10:37.188Z,99961.03
2022-12-08T07:13:04.674Z,99954.84
2022-12-08T07:15:33.471Z,99959.22
2022-12-08T07:18:00.987Z,99966.09
2022-12-08T07:20:28.731Z,99970.28
2022-12-08T07:22:56.250Z,99972.59
2022-12-08T07:25:24.049Z,99972.91
2022-12-08T07:27:53.124Z,99979.81
2022-12-08T07:30:21.009Z,99978.16
2022-12-08T07:32:49.802Z,99976.75
2022-12-08T07:35:17.433Z,99980.75
2022-12-08T07:37:44.878Z,99978.63
2022-12-08T07:40:13.541Z,99983.91
2022-12-08T07:42:40.966Z,99980.81
2022-12-08T07:45:09.464Z,99976.47
2022-12-08T07:47:36.886Z,99977.53
2022-12-08T07:50:07.106Z,99973.66
2022-12-08T07:52:35.156Z,99976.97
2022-12-08T07:55:03.926Z,99971.22
2022-12-08T07:57:31.351Z,99971.25
2022-12-08T07:59:58.797Z,99959.38
2022-12-08T08:02:26.573Z,99962.88
2022-12-08T08:04:54.420Z,99965.31
2022-12-08T08:07:23.283Z,99972.25
2022-12-08T08:09:50.715Z,99976.53
2022-12-08T08:12:33.632Z,99981.47
2022-12-08T08:15:02.988Z,99993.50
2022-12-08T08:17:30.725Z,99991.25
2022-12-08T08:19:58.441Z,99991.09
2022-12-08T08:22:27.490Z,99998.44
2022-12-08T08:24:55.198Z,100003.00
2022-12-08T08:27:23.036Z,99997.44
2022-12-08T08:29:50.472Z,99996.81
2022-12-08T08:32:17.972Z,100001.72
2022-12-08T08:34:45.518Z,100005.00
2022-12-08T08:37:13.030Z,100006.19
2022-12-08T08:39:42.928Z,99997.81
2022-12-08T08:42:10.389Z,100003.97
2022-12-08T08:44:38.818Z,100002.75
2022-12-08T08:47:06.314Z,99999.84
2022-12-08T08:49:34.151Z,100000.09
2022-12-08T08:52:03.012Z,100006.28
2022-12-08T08:54:30.528Z,100002.72
2022-12-08T08:56:59.962Z,99999.47
2022-12-08T08:59:27.979Z,99995.50
2022-12-08T09:01:56.150Z,99997.56
2022-12-08T09:04:25.484Z,99999.41
2022-12-08T09:06:53.115Z,100000.44
2022-12-08T09:09:20.636Z,99999.84
2022-12-08T09:11:48.092Z,100000.06
2022-12-08T09:14:17.025Z,100002.06
2022-12-08T09:16:44.504Z,99992.25
2022-12-08T09:19:12.020Z,99992.13
2022-12-08T09:21:40.890Z,99989.84
2022-12-08T09:24:10.463Z,99987.81
2022-12-08T09:26:37.913Z,99999.34
2022-12-08T09:29:05.375Z,99996.41
2022-12-08T09:31:34.260Z,100001.34
2022-12-08T09:34:03.076Z,100003.13
2022-12-08T09:36:30.543Z,99992.44
2022-12-08T09:38:58.056Z,100005.41
2022-12-08T09:41:37.584Z,100008.28
2022-12-08T09:44:30.502Z,99998.28
2022-12-08T09:47:00.045Z,100007.75
2022-12-08T09:49:34.843Z,100005.09
2022-12-08T09:52:03.411Z,100002.25
2022-12-08T09:54:33.521Z,99991.75
2022-12-08T09:57:03.876Z,99996.69
2022-12-08T09:59:32.983Z,99992.38
2022-12-08T10:02:03.160Z,99985.38
2022-12-08T10:04:32.581Z,99987.25
2022-12-08T10:07:05.513Z,99991.44
2022-12-08T10:09:39.809Z,99992.34
2022-12-08T10:12:14.039Z,99989.31
2022-12-08T10:14:43.983Z,99993.63
2022-12-08T10:17:18.749Z,99991.22
2022-12-08T10:19:47.224Z,99985.28
2022-12-08T10:22:21.309Z,99985.09
2022-12-08T10:24:55.697Z,99984.19
2022-12-08T10:27:23.522Z,99982.25
2022-12-08T10:29:50.968Z,99986.84
2022-12-08T10:32:21.664Z,99984.78
2022-12-08T10:35:01.122Z,99999.53
2022-12-08T10:37:28.596Z,99990.44
2022-12-08T10:40:00.339Z,99994.94
2022-12-08T10:42:34.394Z,99982.94
2022-12-08T10:45:15.160Z,99985.19
2022-12-08T10:47:45.439Z,99983.50
2022-12-08T10:50:19.930Z,99986.72
2022-12-08T10:52:48.027Z,99986.81
2022-12-08T10:55:17.959Z,99979.22
2022-12-08T10:57:45.700Z,99991.09
2022-12-08T11:00:15.206Z,99989.84
2022-12-08T11:02:59.627Z,99990.78
2022-12-08T11:05:30.188Z,99993.44
2022-12-08T11:07:58.174Z,99987.88
2022-12-08T11:10:34.255Z,99999.72
2022-12-08T11:13:03.479Z,100003.78
2022-12-08T11:15:36.264Z,99998.09
2022-12-08T11:18:19.469Z,100002.53
2022-12-08T11:20:46.928Z,100001.50
2022-12-08T11:23:25.901Z,100006.25
2022-12-08T11:25:55.181Z,99998.44
2022-12-08T11:28:24.487Z,100007.00
2022-12-08T11:30:57.483Z,99997.03
2022-12-08T11:33:27.667Z,100001.22
2022-12-08T11:35:59.060Z,99996.75
2022-12-08T11:38:27.899Z,99997.56
2022-12-08T11:40:57.017Z,100003.09
2022-12-08T11:43:28.614Z,100000.22
2022-12-08T11:45:59.953Z,99995.34
2022-12-08T11:48:34.787Z,99996.16
2022-12-08T11:51:06.619Z,99997.03
2022-12-08T11:53:37.367Z,99999.66
2022-12-08T11:56:08.851Z,99998.56
2022-12-08T11:58:39.794Z,99998.59
2022-12-08T12:01:07.299Z,99994.88
2022-12-08T12:03:40.348Z,99995.75
2022-12-08T12:06:38.164Z,99998.59
2022-12-08T12:09:12.782Z,99997.94
2022-12-08T12:12:04.626Z,100005.16
2022-12-08T12:14:47.427Z,99995.13
2022-12-08T12:17:28.503Z,100009.28
2022-12-08T12:20:00.470Z,100010.75
2022-12-08T12:22:32.148Z,100004.47
2022-12-08T12:24:59.763Z,100005.03
2022-12-08T12:27:39.103Z,100005.19
2022-12-08T12:30:10.016Z,100007.94
2022-12-08T12:32:44.281Z,100003.09
2022-12-08T12:35:18.102Z,99994.56
2022-12-08T12:37:47.855Z,100006.06
2022-12-08T12:40:18.406Z,100002.16
2022-12-08T12:42:49.046Z,100006.78
2022-12-08T12:45:29.149Z,100016.75
2022-12-08T12:48:18.608Z,100009.19
2022-12-08T12:50:48.611Z,100022.56
2022-12-08T12:53:50.541Z,100020.78
2022-12-08T12:56:49.830Z,100014.97
2022-12-08T12:59:33.521Z,100009.09
2022-12-08T13:02:02.448Z,100013.81
2022-12-08T13:04:35.864Z,100011.22
2022-12-08T13:07:05.425Z,100010.06
2022-12-08T13:09:36.288Z,100009.41
2022-12-08T13:12:10.541Z,100010.44
2022-12-08T13:14:39.240Z,100009.53
2022-12-08T13:17:11.647Z,100018.28
2022-12-08T13:19:40.686Z,100015.44
2022-12-08T13:22:41.592Z,100023.81
2022-12-08T13:25:47.628Z,100025.34
2022-12-08T13:28:20.710Z,100025.19
2022-12-08T13:30:49.966Z,100024.22
2022-12-08T13:33:19.824Z,100025.19
2022-12-08T13:35:52.606Z,100024.41
2022-12-08T13:38:22.463Z,100022.06
2022-12-08T13:40:51.656Z,100024.44
2022-12-08T13:43:26.581Z,100018.88
2022-12-08T13:53:41.903Z,100034.91
2022-12-08T13:57:28.596Z,100037.03
2022-12-08T14:00:01.416Z,100036.78
2022-12-08T14:02:31.639Z,100037.41
2022-12-08T14:07:48.283Z,100040.19
2022-12-08T14:10:19.914Z,100036.56
2022-12-08T14:12:53.611Z,100035.69
2022-12-08T14:15:22.112Z,100042.88
2022-12-08T14:17:52.775Z,100047.78
2022-12-08T14:20:21.809Z,100048.28
2022-12-08T14:22:50.192Z,100051.09
2022-12-08T14:25:18.435Z,100049.94
2022-12-08T14:27:46.575Z,100053.59
2022-12-08T14:30:21.848Z,100065.19
2022-12-08T14:32:50.569Z,100055.38
2022-12-08T14:35:24.278Z,100055.50
2022-12-08T14:37:54.243Z,100065.28
2022-12-08T14:40:24.520Z,100064.13
2022-12-08T14:42:54.354Z,100061.63
2022-12-08T14:45:23.264Z,100063.34
2022-12-08T14:47:51.306Z,100056.50
2022-12-08T14:50:39.115Z,100058.84
2022-12-08T14:53:12.247Z,100066.19
2022-12-08T14:55:40.024Z,100069.44
2022-12-08T14:58:07.573Z,100060.38
2022-12-08T15:00:41.643Z,100065.81
2022-12-08T15:03:09.137Z,100072.63
2022-12-08T15:05:36.618Z,100079.66
2022-12-08T15:08:04.901Z,100076.06
2022-12-08T15:10:37.903Z,100072.69
2022-12-08T15:13:08.698Z,100071.94
2022-12-08T15:15:52.088Z,100071.13
2022-12-08T15:18:20.563Z,100074.19
2022-12-08T15:20:50.122Z,100072.69
2022-12-08T15:23:27.587Z,100076.44
2022-12-08T15:25:56.127Z,100078.53
2022-12-08T15:28:29.417Z,100097.06
2022-12-08T15:30:59.487Z,100104.84
2022-12-08T15:33:27.394Z,100108.84
2022-12-08T15:35:54.907Z,100098.06
2022-12-08T15:38:24.808Z,100086.13
2022-12-08T15:40:52.477Z,100092.84
2022-12-08T15:43:20.317Z,100087.69
2022-12-08T15:45:58.313Z,100091.97
2022-12-08T15:48:30.112Z,100090.28
2022-12-08T15:50:57.761Z,100092.06
2022-12-08T15:53:25.273Z,100092.25
2022-12-08T15:56:25.610Z,100102.50
2022-12-08T15:58:56.931Z,100094.06
2022-12-08T16:01:25.534Z,100087.97
2022-12-08T16:04:47.254Z,100096.56
2022-12-08T16:07:20.205Z,100095.31
2022-12-08T16:09:32.497Z,100105.56
2022-12-08T16:12:18.181Z,100108.41
2022-12-08T16:17:34.074Z,100106.03
2022-12-08T16:20:03.726Z,100106.22
2022-12-08T16:25:22.055Z,100114.59
2022-12-08T16:28:29.420Z,100104.34
2022-12-08T16:30:38.693Z,100114.22
2022-12-08T16:33:06.498Z,100120.75
2022-12-08T16:35:35.359Z,100119.91
2022-12-08T16:38:03.005Z,100124.47
2022-12-08T16:40:30.815Z,100125.66
2022-12-08T16:42:57.284Z,100123.22
2022-12-08T16:45:25.991Z,100123.44
2022-12-08T16:47:55.020Z,100127.72
2022-12-08T16:50:24.574Z,100134.44
2022-12-08T16:52:58.286Z,100136.09
2022-12-08T16:55:26.107Z,100127.72
2022-12-08T16:57:53.817Z,100122.59
2022-12-08T17:00:23.230Z,100131.19
2022-12-08T17:02:50.732Z,100132.63
2022-12-08T17:05:20.272Z,100131.41
2022-12-08T17:07:49.597Z,100130.59
2022-12-08T17:10:20.612Z,100127.31
2022-12-08T17:12:48.063Z,100136.94
2022-12-08T17:15:17.423Z,100135.91
2022-12-08T17:17:44.929Z,100136.69
2022-12-08T17:20:14.688Z,100132.22
2022-12-08T17:22:42.170Z,100132.22
2022-12-08T17:25:10.386Z,100146.31
2022-12-08T17:27:39.955Z,100147.56
2022-12-08T17:30:10.980Z,100147.16
2022-12-08T17:32:38.725Z,100150.66
2022-12-08T17:35:07.546Z,100143.13
2022-12-08T17:37:35.218Z,100144.53
2022-12-08T17:40:03.159Z,100150.81
2022-12-08T17:42:30.821Z,100162.50
2022-12-08T17:44:59.646Z,100155.13
2022-12-08T17:47:27.175Z,100141.84
2022-12-08T17:49:55.924Z,100154.72
2022-12-08T17:52:23.454Z,100150.66
2022-12-08T17:54:50.975Z,100153.09
2022-12-08T17:57:18.414Z,100156.59
2022-12-08T17:59:46.007Z,100158.41
2022-12-08T18:02:14.978Z,100151.47
2022-12-08T18:04:42.471Z,100151.69
2022-12-08T18:07:09.932Z,100154.53
2022-12-08T18:09:37.752Z,100154.34
2022-12-08T18:12:05.684Z,100144.94
2022-12-08T18:14:33.156Z,100136.75
2022-12-08T18:17:00.680Z,100138.84
2022-12-08T18:19:29.554Z,100141.25
2022-12-08T18:21:57.020Z,100137.53
2022-12-08T18:24:24.927Z,100137.59
2022-12-08T18:26:52.827Z,100135.13
2022-12-08T18:29:20.469Z,100132.69
2022-12-08T18:31:48.091Z,100140.47
2022-12-08T18:34:15.622Z,100140.88
2022-12-08T18:36:44.406Z,100145.97
2022-12-08T18:39:21.643Z,100143.69
2022-12-08T18:41:49.105Z,100147.44
2022-12-08T18:44:16.562Z,100148.63
2022-12-08T18:46:44.077Z,100147.47
2022-12-08T18:49:12.502Z,100154.63
2022-12-08T18:51:40.104Z,100151.31
2022-12-08T18:54:09.070Z,100156.44
2022-12-08T18:56:37.148Z,100153.13
2022-12-08T18:59:07.367Z,100154.44
2022-12-08T19:01:36.979Z,100150.91
2022-12-08T19:06:54.486Z,100161.97
2022-12-08T19:09:24.370Z,100159.97
2022-12-08T19:11:52.771Z,100160.56
2022-12-08T19:14:25.885Z,100156.28
2022-12-08T19:16:55.511Z,100157.31
2022-12-08T19:19:22.970Z,100164.84
2022-12-08T19:21:50.722Z,100161.00
2022-12-08T19:24:18.203Z,100160.41
2022-12-08T19:26:47.027Z,100157.75
2022-12-08T19:29:14.470Z,100162.66
2022-12-08T19:31:42.058Z,100171.47
2022-12-08T19:34:10.576Z,100167.16
2022-12-08T19:36:42.250Z,100171.47
2022-12-08T19:39:30.130Z,100180.69
2022-12-08T19:42:16.590Z,100175.78
2022-12-08T19:44:56.236Z,100173.94
2022-12-08T19:47:25.345Z,100179.84
2022-12-08T19:49:53.775Z,100176.81
2022-12-08T19:52:22.079Z,100177.59
2022-12-08T19:54:49.539Z,100180.91
2022-12-08T19:57:20.259Z,100189.28
2022-12-08T19:59:51.667Z,100194.41
2022-12-08T20:02:22.405Z,100190.09
2022-12-08T20:04:50.071Z,100188.50
2022-12-08T20:07:17.530Z,100189.94
2022-12-08T20:09:45.010Z,100188.50
2022-12-08T20:12:12.500Z,100188.13
2022-12-08T20:14:45.738Z,100184.84
2022-12-08T20:17:13.601Z,100188.31
2022-12-08T20:19:41.115Z,100184.63
2022-12-08T20:22:08.810Z,100186.50
2022-12-08T20:24:36.471Z,100189.75
2022-12-08T20:27:03.988Z,100193.44
2022-12-08T20:29:31.463Z,100190.56
2022-12-08T20:32:00.447Z,100191.75
2022-12-08T20:34:27.988Z,100187.69
2022-12-08T20:36:56.180Z,100187.09
2022-12-08T20:39:23.607Z,100193.84
2022-12-08T20:41:52.207Z,100198.34
2022-12-08T20:44:19.700Z,100202.44
2022-12-08T20:46:49.680Z,100202.66
2022-12-08T20:49:18.693Z,100207.31
2022-12-08T20:51:46.354Z,100209.78
2022-12-08T20:54:13.855Z,100207.94
2022-12-08T20:56:48.149Z,100213.66
2022-12-08T20:59:16.826Z,100216.75
2022-12-08T21:01:44.404Z,100221.84
2022-12-08T21:04:12.457Z,100218.97
2022-12-08T21:06:41.520Z,100213.91
2022-12-08T21:09:09.756Z,100219.63
2022-12-08T21:11:37.467Z,100216.34
2022-12-08T21:14:05.079Z,100220.41
2022-12-08T21:16:32.916Z,100220.22
2022-12-08T21:19:00.630Z,100214.91
2022-12-08T21:21:28.290Z,100224.09
2022-12-08T21:23:57.115Z,100234.13
2022-12-08T21:26:26.529Z,100227.19
2022-12-08T21:28:54.602Z,100222.88
2022-12-08T21:31:22.871Z,100227.78
2022-12-08T21:33:50.487Z,100225.75
2022-12-08T21:36:19.810Z,100212.69
2022-12-08T21:38:48.003Z,100216.78
2022-12-08T21:41:38.668Z,100217.38
2022-12-08T21:44:06.342Z,100216.16
2022-12-08T21:46:34.219Z,100215.94
2022-12-08T21:49:02.126Z,100207.78
2022-12-08T21:51:30.240Z,100218.41
2022-12-08T21:53:57.973Z,100217.59
2022-12-08T21:56:26.835Z,100215.34
2022-12-08T21:58:54.960Z,100222.09
2022-12-08T22:01:22.743Z,100214.56
2022-12-08T22:03:50.601Z,100213.94
2022-12-08T22:06:18.350Z,100216.78
2022-12-08T22:08:46.125Z,100213.53
2022-12-08T22:11:14.280Z,100209.03
2022-12-08T22:13:43.458Z,100207.38
2022-12-08T22:16:14.467Z,100222.09
2022-12-08T22:18:42.167Z,100230.06
2022-12-08T22:21:10.580Z,100230.88
2022-12-08T22:23:38.434Z,100240.06
2022-12-08T22:26:06.798Z,100238.66
2022-12-08T22:28:36.691Z,100243.13
2022-12-08T22:31:10.599Z,100241.09
2022-12-08T22:33:38.473Z,100229.88
2022-12-08T22:36:11.013Z,100234.16
2022-12-08T22:38:39.265Z,100234.38
2022-12-08T22:41:07.269Z,100239.06
2022-12-08T22:43:36.673Z,100234.38
2022-12-08T22:46:12.097Z,100224.38
2022-12-08T22:48:39.718Z,100231.91
2022-12-08T22:51:07.924Z,100234.16
2022-12-08T22:53:38.115Z,100232.13
2022-12-08T22:56:06.603Z,100240.06
2022-12-08T22:58:34.872Z,100240.88
2022-12-08T23:01:03.521Z,100235.16
2022-12-08T23:03:32.715Z,100234.75
2022-12-08T23:06:00.681Z,100239.03
2022-12-08T23:08:28.341Z,100237.03
2022-12-08T23:10:56.126Z,100240.69
2022-12-08T23:13:24.256Z,100241.28
2022-12-08T23:15:51.839Z,100244.56
2022-12-08T23:18:20.014Z,100247.56
2022-12-08T23:20:49.386Z,100240.47
2022-12-08T23:23:16.861Z,100243.53
2022-12-08T23:25:44.508Z,100244.13
2022-12-08T23:28:12.011Z,100237.22
2022-12-08T23:30:40.427Z,100229.66
2022-12-08T23:33:07.946Z,100239.28
2022-12-08T23:35:35.488Z,100230.91
2022-12-08T23:38:04.319Z,100228.63
2022-12-08T23:40:31.975Z,100236.81
2022-12-08T23:42:59.624Z,100238.47
2022-12-08T23:45:27.121Z,100250.28
2022-12-08T23:47:54.625Z,100250.06
2022-12-08T23:50:22.452Z,100247.00
2022-12-08T23:52:49.990Z,100252.06
2022-12-08T23:55:18.740Z,100252.25
2022-12-08T23:57:47.324Z,100248.81
